Helena, Oklahoma
Current Conditions -  °F | °C
As of 5:58 AM on Saturday 20 Dec 2014 (Local Time) from KEND Reporting Station
Overcast Overcast  
Wind Chill: 27°   Ceiling: 2800
Heat Index: 34°   Visibility: 8mi
Dew Point: 33°   Wind: 8mph
Humidity: 95%   Direction: 160°SSE
Pressure: 30.18"   Gusts: NA
Location:  36.55°N, 98.27°W
Report Text: KEND 201158Z AUTO 16007KT 8SM R17C/5500FT OVC028 01/00 A3018 RMK AO2 SLP230 T00110004 10026 21009 50002 $
Loading
Personal Weather Stations






























Interactive Weather Map New forecast layout! Learn more

10-Day Weather Forecast

Advertisements
Track Severe Weather on mobile